Terminal Aerodrome Forecast
Issued by NWS Brownsville, TX

Home | Current Version | Previous Version | Text Only | Print | Product List | Glossary On
Versions: 1 2 3 4 5 6 7 8 9 10 11 12 13 14 15 16 17 18 19 20 21 22 23 24 25 26 27 28
000
FTUS44 KBRO 160600 AAA
TAFBRO
TAF AMD
KBRO 160659Z 1607/1706 VRB03KT 4SM BR BKN010
     FM161000 24005KT P6SM VCSH SCT015 BKN050
     FM161500 16012KT P6SM -TSRA BKN030CB
      TEMPO 1618/1622 2SM +TSRA BKN020CB
     FM170000 13008KT P6SM SCT030=

USA.gov is the U.S. government's official web portal to all federal, state and local government web resources and services.